sensor_id;sensor_type;location;lat;lon;timestamp;P1;durP1;ratioP1;P2;durP2;ratioP2
46753;SDS011;32500;50.620;3.400;2023-09-19T00:01:18;106.63;;;54.85;;
46753;SDS011;32500;50.620;3.400;2023-09-19T00:03:45;109.65;;;54.80;;
46753;SDS011;32500;50.620;3.400;2023-09-19T00:06:11;110.35;;;54.88;;
46753;SDS011;32500;50.620;3.400;2023-09-19T00:08:40;109.63;;;54.80;;
46753;SDS011;32500;50.620;3.400;2023-09-19T00:11:09;111.60;;;55.10;;
46753;SDS011;32500;50.620;3.400;2023-09-19T00:13:36;109.93;;;54.78;;
46753;SDS011;32500;50.620;3.400;2023-09-19T00:16:01;107.60;;;54.65;;
46753;SDS011;32500;50.620;3.400;2023-09-19T00:18:33;107.30;;;55.00;;
46753;SDS011;32500;50.620;3.400;2023-09-19T00:21:00;108.05;;;54.92;;
46753;SDS011;32500;50.620;3.400;2023-09-19T00:23:25;106.78;;;54.45;;
46753;SDS011;32500;50.620;3.400;2023-09-19T00:25:52;107.35;;;54.80;;
46753;SDS011;32500;50.620;3.400;2023-09-19T00:28:22;109.80;;;54.77;;
46753;SDS011;32500;50.620;3.400;2023-09-19T00:30:48;108.00;;;55.03;;
46753;SDS011;32500;50.620;3.400;2023-09-19T00:33:16;107.55;;;55.00;;
46753;SDS011;32500;50.620;3.400;2023-09-19T00:35:52;108.00;;;54.83;;
46753;SDS011;32500;50.620;3.400;2023-09-19T00:38:19;106.32;;;54.45;;
46753;SDS011;32500;50.620;3.400;2023-09-19T00:40:48;107.80;;;54.60;;
46753;SDS011;32500;50.620;3.400;2023-09-19T00:43:15;108.20;;;54.75;;
46753;SDS011;32500;50.620;3.400;2023-09-19T00:45:42;107.47;;;54.70;;
46753;SDS011;32500;50.620;3.400;2023-09-19T00:48:10;106.78;;;54.70;;
46753;SDS011;32500;50.620;3.400;2023-09-19T00:50:36;106.80;;;54.63;;
46753;SDS011;32500;50.620;3.400;2023-09-19T00:53:07;107.15;;;54.30;;
46753;SDS011;32500;50.620;3.400;2023-09-19T00:55:33;107.53;;;54.75;;
46753;SDS011;32500;50.620;3.400;2023-09-19T00:57:59;106.78;;;54.65;;
46753;SDS011;32500;50.620;3.400;2023-09-19T01:00:25;108.70;;;54.47;;
46753;SDS011;32500;50.620;3.400;2023-09-19T01:02:51;106.78;;;54.25;;
46753;SDS011;32500;50.620;3.400;2023-09-19T01:07:46;106.20;;;54.90;;
46753;SDS011;32500;50.620;3.400;2023-09-19T01:10:15;105.85;;;54.60;;
46753;SDS011;32500;50.620;3.400;2023-09-19T01:13:05;107.68;;;54.65;;
46753;SDS011;32500;50.620;3.400;2023-09-19T01:21:15;109.85;;;54.75;;
46753;SDS011;32500;50.620;3.400;2023-09-19T01:26:24;106.22;;;54.50;;
46753;SDS011;32500;50.620;3.400;2023-09-19T01:32:01;108.03;;;54.45;;
46753;SDS011;32500;50.620;3.400;2023-09-19T01:37:15;107.30;;;54.72;;
46753;SDS011;32500;50.620;3.400;2023-09-19T01:39:56;105.07;;;54.50;;
46753;SDS011;32500;50.620;3.400;2023-09-19T01:47:59;106.88;;;54.25;;
46753;SDS011;32500;50.620;3.400;2023-09-19T01:53:27;107.43;;;54.33;;
46753;SDS011;32500;50.620;3.400;2023-09-19T01:56:01;105.45;;;54.55;;
46753;SDS011;32500;50.620;3.400;2023-09-19T01:58:34;107.32;;;54.65;;
46753;SDS011;32500;50.620;3.400;2023-09-19T02:01:15;105.90;;;54.47;;
46753;SDS011;32500;50.620;3.400;2023-09-19T02:03:43;106.10;;;54.27;;
46753;SDS011;32500;50.620;3.400;2023-09-19T02:06:17;105.88;;;54.20;;
46753;SDS011;32500;50.620;3.400;2023-09-19T02:08:44;106.45;;;54.63;;
46753;SDS011;32500;50.620;3.400;2023-09-19T02:11:10;106.35;;;54.63;;
46753;SDS011;32500;50.620;3.400;2023-09-19T02:13:38;106.57;;;53.90;;
46753;SDS011;32500;50.620;3.400;2023-09-19T02:16:03;108.65;;;53.97;;
46753;SDS011;32500;50.620;3.400;2023-09-19T02:18:29;105.72;;;54.13;;
46753;SDS011;32500;50.620;3.400;2023-09-19T02:20:55;107.85;;;54.67;;
46753;SDS011;32500;50.620;3.400;2023-09-19T02:23:23;106.95;;;54.33;;
46753;SDS011;32500;50.620;3.400;2023-09-19T02:25:54;107.15;;;54.50;;
46753;SDS011;32500;50.620;3.400;2023-09-19T02:28:19;109.13;;;54.20;;
46753;SDS011;32500;50.620;3.400;2023-09-19T02:30:48;106.72;;;54.35;;
46753;SDS011;32500;50.620;3.400;2023-09-19T02:33:15;105.95;;;54.20;;
46753;SDS011;32500;50.620;3.400;2023-09-19T02:35:42;107.00;;;54.28;;
46753;SDS011;32500;50.620;3.400;2023-09-19T02:38:08;107.22;;;54.40;;
46753;SDS011;32500;50.620;3.400;2023-09-19T02:40:36;107.53;;;54.17;;
46753;SDS011;32500;50.620;3.400;2023-09-19T02:43:02;105.88;;;54.47;;
46753;SDS011;32500;50.620;3.400;2023-09-19T02:45:28;106.93;;;54.25;;
46753;SDS011;32500;50.620;3.400;2023-09-19T02:47:55;108.10;;;54.17;;
46753;SDS011;32500;50.620;3.400;2023-09-19T02:50:20;106.68;;;54.42;;
46753;SDS011;32500;50.620;3.400;2023-09-19T02:52:46;105.65;;;54.05;;
46753;SDS011;32500;50.620;3.400;2023-09-19T02:55:14;106.90;;;54.67;;
46753;SDS011;32500;50.620;3.400;2023-09-19T02:57:49;106.90;;;54.35;;
46753;SDS011;32500;50.620;3.400;2023-09-19T03:00:17;106.13;;;54.42;;
46753;SDS011;32500;50.620;3.400;2023-09-19T03:02:46;109.72;;;54.42;;
46753;SDS011;32500;50.620;3.400;2023-09-19T03:05:19;107.45;;;54.35;;
46753;SDS011;32500;50.620;3.400;2023-09-19T03:07:46;104.90;;;54.28;;
46753;SDS011;32500;50.620;3.400;2023-09-19T03:10:16;108.13;;;54.20;;
46753;SDS011;32500;50.620;3.400;2023-09-19T03:12:42;105.30;;;54.33;;
46753;SDS011;32500;50.620;3.400;2023-09-19T03:15:08;104.97;;;54.10;;
46753;SDS011;32500;50.620;3.400;2023-09-19T03:17:34;109.57;;;54.45;;
46753;SDS011;32500;50.620;3.400;2023-09-19T03:20:01;105.00;;;54.30;;
46753;SDS011;32500;50.620;3.400;2023-09-19T03:22:27;109.03;;;54.13;;
46753;SDS011;32500;50.620;3.400;2023-09-19T03:24:53;105.72;;;53.90;;
46753;SDS011;32500;50.620;3.400;2023-09-19T03:27:19;103.55;;;53.53;;
46753;SDS011;32500;50.620;3.400;2023-09-19T03:29:46;105.70;;;54.38;;
46753;SDS011;32500;50.620;3.400;2023-09-19T03:32:12;105.30;;;54.33;;
46753;SDS011;32500;50.620;3.400;2023-09-19T03:34:37;104.35;;;53.95;;
46753;SDS011;32500;50.620;3.400;2023-09-19T03:37:08;105.60;;;54.33;;
46753;SDS011;32500;50.620;3.400;2023-09-19T03:39:34;107.20;;;54.35;;
46753;SDS011;32500;50.620;3.400;2023-09-19T03:42:00;105.80;;;54.05;;
46753;SDS011;32500;50.620;3.400;2023-09-19T03:44:28;105.03;;;54.25;;
46753;SDS011;32500;50.620;3.400;2023-09-19T03:46:55;106.95;;;54.45;;
46753;SDS011;32500;50.620;3.400;2023-09-19T03:49:21;106.32;;;54.25;;
46753;SDS011;32500;50.620;3.400;2023-09-19T03:51:47;106.47;;;54.22;;
46753;SDS011;32500;50.620;3.400;2023-09-19T03:54:13;104.88;;;54.38;;
46753;SDS011;32500;50.620;3.400;2023-09-19T03:59:06;105.03;;;54.25;;
46753;SDS011;32500;50.620;3.400;2023-09-19T04:01:33;105.55;;;54.38;;
46753;SDS011;32500;50.620;3.400;2023-09-19T04:03:59;109.38;;;54.72;;
46753;SDS011;32500;50.620;3.400;2023-09-19T04:06:32;105.50;;;54.00;;
46753;SDS011;32500;50.620;3.400;2023-09-19T04:09:02;104.18;;;54.22;;
46753;SDS011;32500;50.620;3.400;2023-09-19T04:11:28;105.50;;;54.05;;
46753;SDS011;32500;50.620;3.400;2023-09-19T04:13:55;105.20;;;53.97;;
46753;SDS011;32500;50.620;3.400;2023-09-19T04:16:21;105.15;;;54.15;;
46753;SDS011;32500;50.620;3.400;2023-09-19T04:18:46;105.45;;;54.22;;
46753;SDS011;32500;50.620;3.400;2023-09-19T04:21:12;109.60;;;54.28;;
46753;SDS011;32500;50.620;3.400;2023-09-19T04:23:38;105.93;;;54.28;;
46753;SDS011;32500;50.620;3.400;2023-09-19T04:26:03;107.97;;;54.58;;
46753;SDS011;32500;50.620;3.400;2023-09-19T04:28:29;103.30;;;53.78;;
46753;SDS011;32500;50.620;3.400;2023-09-19T04:30:56;106.05;;;54.55;;
46753;SDS011;32500;50.620;3.400;2023-09-19T04:33:23;106.07;;;54.20;;
46753;SDS011;32500;50.620;3.400;2023-09-19T04:35:50;105.50;;;54.25;;
46753;SDS011;32500;50.620;3.400;2023-09-19T04:38:16;105.75;;;54.05;;
46753;SDS011;32500;50.620;3.400;2023-09-19T04:51:15;109.70;;;54.40;;
46753;SDS011;32500;50.620;3.400;2023-09-19T04:53:43;109.32;;;54.25;;
46753;SDS011;32500;50.620;3.400;2023-09-19T04:56:14;107.55;;;53.95;;
46753;SDS011;32500;50.620;3.400;2023-09-19T05:01:43;104.57;;;54.55;;
46753;SDS011;32500;50.620;3.400;2023-09-19T05:04:33;106.03;;;54.08;;
46753;SDS011;32500;50.620;3.400;2023-09-19T05:07:16;108.53;;;54.40;;
46753;SDS011;32500;50.620;3.400;2023-09-19T05:09:51;108.82;;;54.42;;
46753;SDS011;32500;50.620;3.400;2023-09-19T05:12:16;105.35;;;54.65;;
46753;SDS011;32500;50.620;3.400;2023-09-19T05:14:47;112.82;;;54.95;;
46753;SDS011;32500;50.620;3.400;2023-09-19T05:17:16;110.72;;;54.45;;
46753;SDS011;32500;50.620;3.400;2023-09-19T05:19:55;104.95;;;54.00;;
46753;SDS011;32500;50.620;3.400;2023-09-19T05:22:31;109.53;;;54.58;;
46753;SDS011;32500;50.620;3.400;2023-09-19T05:25:33;109.35;;;54.50;;
46753;SDS011;32500;50.620;3.400;2023-09-19T05:28:17;109.10;;;55.05;;
46753;SDS011;32500;50.620;3.400;2023-09-19T05:30:46;106.68;;;54.95;;
46753;SDS011;32500;50.620;3.400;2023-09-19T05:35:48;110.10;;;54.50;;
46753;SDS011;32500;50.620;3.400;2023-09-19T05:38:14;107.78;;;55.22;;
46753;SDS011;32500;50.620;3.400;2023-09-19T05:43:48;116.47;;;56.47;;
46753;SDS011;32500;50.620;3.400;2023-09-19T05:46:18;109.82;;;56.00;;
46753;SDS011;32500;50.620;3.400;2023-09-19T05:49:14;110.37;;;55.43;;
46753;SDS011;32500;50.620;3.400;2023-09-19T05:54:34;111.00;;;55.90;;
46753;SDS011;32500;50.620;3.400;2023-09-19T05:57:14;120.55;;;57.03;;
46753;SDS011;32500;50.620;3.400;2023-09-19T05:59:43;116.88;;;57.35;;
46753;SDS011;32500;50.620;3.400;2023-09-19T06:02:14;114.90;;;55.95;;
46753;SDS011;32500;50.620;3.400;2023-09-19T06:04:48;109.50;;;55.92;;
46753;SDS011;32500;50.620;3.400;2023-09-19T06:10:11;115.80;;;55.88;;
46753;SDS011;32500;50.620;3.400;2023-09-19T06:15:34;114.22;;;55.90;;
46753;SDS011;32500;50.620;3.400;2023-09-19T06:18:14;108.93;;;55.35;;
46753;SDS011;32500;50.620;3.400;2023-09-19T06:20:44;111.40;;;55.83;;
46753;SDS011;32500;50.620;3.400;2023-09-19T06:23:11;108.65;;;55.53;;
46753;SDS011;32500;50.620;3.400;2023-09-19T06:25:46;111.03;;;55.40;;
46753;SDS011;32500;50.620;3.400;2023-09-19T06:28:13;108.72;;;55.70;;
46753;SDS011;32500;50.620;3.400;2023-09-19T06:30:42;106.95;;;55.28;;
46753;SDS011;32500;50.620;3.400;2023-09-19T06:33:17;109.82;;;55.55;;
46753;SDS011;32500;50.620;3.400;2023-09-19T06:35:45;109.68;;;55.20;;
46753;SDS011;32500;50.620;3.400;2023-09-19T06:41:47;111.97;;;55.20;;
46753;SDS011;32500;50.620;3.400;2023-09-19T06:44:15;108.13;;;55.45;;
46753;SDS011;32500;50.620;3.400;2023-09-19T06:46:47;110.55;;;55.67;;
46753;SDS011;32500;50.620;3.400;2023-09-19T06:49:44;110.93;;;55.35;;
46753;SDS011;32500;50.620;3.400;2023-09-19T06:52:18;109.82;;;55.35;;
46753;SDS011;32500;50.620;3.400;2023-09-19T06:54:44;110.18;;;55.88;;
46753;SDS011;32500;50.620;3.400;2023-09-19T06:57:27;108.65;;;55.42;;
46753;SDS011;32500;50.620;3.400;2023-09-19T07:00:06;106.20;;;54.95;;
46753;SDS011;32500;50.620;3.400;2023-09-19T07:05:47;107.88;;;55.33;;
46753;SDS011;32500;50.620;3.400;2023-09-19T07:08:15;109.50;;;55.80;;
46753;SDS011;32500;50.620;3.400;2023-09-19T07:16:45;109.93;;;55.80;;
46753;SDS011;32500;50.620;3.400;2023-09-19T07:19:15;110.45;;;55.90;;
46753;SDS011;32500;50.620;3.400;2023-09-19T07:21:44;109.82;;;55.85;;
46753;SDS011;32500;50.620;3.400;2023-09-19T07:24:12;110.72;;;55.47;;
46753;SDS011;32500;50.620;3.400;2023-09-19T07:30:14;108.35;;;55.80;;
46753;SDS011;32500;50.620;3.400;2023-09-19T07:35:44;110.35;;;55.65;;
46753;SDS011;32500;50.620;3.400;2023-09-19T07:38:13;111.10;;;55.90;;
46753;SDS011;32500;50.620;3.400;2023-09-19T07:43:40;107.55;;;55.50;;
46753;SDS011;32500;50.620;3.400;2023-09-19T07:46:12;108.07;;;55.50;;
46753;SDS011;32500;50.620;3.400;2023-09-19T07:51:47;107.40;;;55.07;;
46753;SDS011;32500;50.620;3.400;2023-09-19T07:54:43;107.63;;;55.53;;
46753;SDS011;32500;50.620;3.400;2023-09-19T08:04:43;110.30;;;55.75;;
46753;SDS011;32500;50.620;3.400;2023-09-19T08:07:11;111.47;;;55.58;;
46753;SDS011;32500;50.620;3.400;2023-09-19T08:10:12;107.55;;;55.35;;
46753;SDS011;32500;50.620;3.400;2023-09-19T08:12:46;107.63;;;55.45;;
46753;SDS011;32500;50.620;3.400;2023-09-19T08:15:46;108.13;;;55.15;;
46753;SDS011;32500;50.620;3.400;2023-09-19T08:21:16;109.90;;;55.28;;
46753;SDS011;32500;50.620;3.400;2023-09-19T08:23:51;112.13;;;56.17;;
46753;SDS011;32500;50.620;3.400;2023-09-19T08:26:42;108.55;;;55.83;;
46753;SDS011;32500;50.620;3.400;2023-09-19T08:32:15;110.47;;;55.63;;
46753;SDS011;32500;50.620;3.400;2023-09-19T08:37:41;109.57;;;55.40;;
46753;SDS011;32500;50.620;3.400;2023-09-19T08:43:43;108.15;;;55.05;;
46753;SDS011;32500;50.620;3.400;2023-09-19T08:46:11;108.55;;;55.42;;
46753;SDS011;32500;50.620;3.400;2023-09-19T08:55:14;108.97;;;55.63;;
46753;SDS011;32500;50.620;3.400;2023-09-19T08:57:46;109.43;;;55.75;;
46753;SDS011;32500;50.620;3.400;2023-09-19T09:00:49;109.38;;;55.50;;
46753;SDS011;32500;50.620;3.400;2023-09-19T09:06:38;109.75;;;55.50;;
46753;SDS011;32500;50.620;3.400;2023-09-19T09:09:08;109.88;;;55.75;;
46753;SDS011;32500;50.620;3.400;2023-09-19T09:11:43;110.30;;;55.40;;
46753;SDS011;32500;50.620;3.400;2023-09-19T09:14:17;111.60;;;55.95;;
46753;SDS011;32500;50.620;3.400;2023-09-19T09:16:59;109.68;;;55.38;;
46753;SDS011;32500;50.620;3.400;2023-09-19T09:19:35;110.72;;;55.85;;
46753;SDS011;32500;50.620;3.400;2023-09-19T09:25:18;110.60;;;55.95;;
46753;SDS011;32500;50.620;3.400;2023-09-19T09:27:45;113.18;;;55.90;;
46753;SDS011;32500;50.620;3.400;2023-09-19T09:33:52;110.30;;;55.78;;
46753;SDS011;32500;50.620;3.400;2023-09-19T09:36:49;110.10;;;55.60;;
46753;SDS011;32500;50.620;3.400;2023-09-19T09:39:39;108.00;;;55.50;;
46753;SDS011;32500;50.620;3.400;2023-09-19T09:42:07;108.80;;;55.47;;
46753;SDS011;32500;50.620;3.400;2023-09-19T09:44:35;109.05;;;55.72;;
46753;SDS011;32500;50.620;3.400;2023-09-19T09:47:21;108.35;;;55.55;;
46753;SDS011;32500;50.620;3.400;2023-09-19T09:50:31;109.25;;;55.25;;
46753;SDS011;32500;50.620;3.400;2023-09-19T09:53:29;109.50;;;55.33;;
46753;SDS011;32500;50.620;3.400;2023-09-19T09:56:11;109.28;;;55.40;;
46753;SDS011;32500;50.620;3.400;2023-09-19T10:02:09;108.10;;;55.28;;
46753;SDS011;32500;50.620;3.400;2023-09-19T10:08:17;109.05;;;55.08;;
46753;SDS011;32500;50.620;3.400;2023-09-19T10:10:47;109.22;;;55.42;;
46753;SDS011;32500;50.620;3.400;2023-09-19T10:13:31;108.60;;;55.15;;
46753;SDS011;32500;50.620;3.400;2023-09-19T10:16:09;110.30;;;55.25;;
46753;SDS011;32500;50.620;3.400;2023-09-19T10:18:45;108.90;;;55.45;;
46753;SDS011;32500;50.620;3.400;2023-09-19T10:21:43;108.32;;;55.67;;
46753;SDS011;32500;50.620;3.400;2023-09-19T10:24:10;108.28;;;55.35;;
46753;SDS011;32500;50.620;3.400;2023-09-19T10:26:42;108.25;;;54.97;;
46753;SDS011;32500;50.620;3.400;2023-09-19T10:29:46;110.85;;;55.40;;
46753;SDS011;32500;50.620;3.400;2023-09-19T10:35:46;108.90;;;55.10;;
46753;SDS011;32500;50.620;3.400;2023-09-19T10:38:33;110.60;;;55.25;;
46753;SDS011;32500;50.620;3.400;2023-09-19T10:44:00;109.00;;;55.65;;
46753;SDS011;32500;50.620;3.400;2023-09-19T10:47:00;107.25;;;55.15;;
46753;SDS011;32500;50.620;3.400;2023-09-19T10:49:53;108.60;;;55.58;;
46753;SDS011;32500;50.620;3.400;2023-09-19T10:52:46;107.57;;;55.53;;
46753;SDS011;32500;50.620;3.400;2023-09-19T10:55:17;108.13;;;55.67;;
46753;SDS011;32500;50.620;3.400;2023-09-19T10:57:47;108.65;;;55.70;;
46753;SDS011;32500;50.620;3.400;2023-09-19T11:00:16;109.22;;;55.83;;
46753;SDS011;32500;50.620;3.400;2023-09-19T11:03:40;108.32;;;55.63;;
46753;SDS011;32500;50.620;3.400;2023-09-19T11:09:53;108.75;;;55.45;;
46753;SDS011;32500;50.620;3.400;2023-09-19T11:12:48;109.13;;;55.40;;
46753;SDS011;32500;50.620;3.400;2023-09-19T11:31:40;110.43;;;55.92;;
46753;SDS011;32500;50.620;3.400;2023-09-19T11:33:48;110.63;;;55.55;;
46753;SDS011;32500;50.620;3.400;2023-09-19T11:36:42;111.85;;;56.47;;
46753;SDS011;32500;50.620;3.400;2023-09-19T11:39:24;110.43;;;56.50;;
46753;SDS011;32500;50.620;3.400;2023-09-19T11:57:33;113.00;;;56.63;;
46753;SDS011;32500;50.620;3.400;2023-09-19T12:00:01;112.05;;;56.38;;
46753;SDS011;32500;50.620;3.400;2023-09-19T12:02:42;109.68;;;55.78;;
46753;SDS011;32500;50.620;3.400;2023-09-19T12:06:11;109.53;;;55.72;;
46753;SDS011;32500;50.620;3.400;2023-09-19T12:15:22;110.35;;;56.15;;
46753;SDS011;32500;50.620;3.400;2023-09-19T12:18:25;110.85;;;56.33;;
46753;SDS011;32500;50.620;3.400;2023-09-19T12:21:30;110.80;;;55.65;;
46753;SDS011;32500;50.620;3.400;2023-09-19T12:24:06;110.55;;;56.13;;
46753;SDS011;32500;50.620;3.400;2023-09-19T12:27:19;110.53;;;55.65;;
46753;SDS011;32500;50.620;3.400;2023-09-19T12:29:45;111.05;;;56.13;;
46753;SDS011;32500;50.620;3.400;2023-09-19T12:32:35;110.88;;;56.15;;
46753;SDS011;32500;50.620;3.400;2023-09-19T12:35:26;111.10;;;56.10;;
46753;SDS011;32500;50.620;3.400;2023-09-19T12:38:04;109.45;;;55.97;;
46753;SDS011;32500;50.620;3.400;2023-09-19T12:40:47;112.80;;;56.08;;
46753;SDS011;32500;50.620;3.400;2023-09-19T12:43:39;111.03;;;56.22;;
46753;SDS011;32500;50.620;3.400;2023-09-19T12:49:26;110.50;;;56.38;;
46753;SDS011;32500;50.620;3.400;2023-09-19T12:54:42;110.68;;;56.13;;
46753;SDS011;32500;50.620;3.400;2023-09-19T12:59:57;112.20;;;55.97;;
46753;SDS011;32500;50.620;3.400;2023-09-19T13:02:32;110.40;;;56.25;;
46753;SDS011;32500;50.620;3.400;2023-09-19T13:14:36;110.32;;;55.90;;
46753;SDS011;32500;50.620;3.400;2023-09-19T13:17:19;110.97;;;55.97;;
46753;SDS011;32500;50.620;3.400;2023-09-19T13:20:04;108.93;;;55.63;;
46753;SDS011;32500;50.620;3.400;2023-09-19T13:22:47;110.22;;;56.15;;
46753;SDS011;32500;50.620;3.400;2023-09-19T13:25:47;108.00;;;55.63;;
46753;SDS011;32500;50.620;3.400;2023-09-19T13:31:23;109.20;;;55.78;;
46753;SDS011;32500;50.620;3.400;2023-09-19T13:34:14;111.35;;;56.22;;
46753;SDS011;32500;50.620;3.400;2023-09-19T13:36:44;108.95;;;55.92;;
46753;SDS011;32500;50.620;3.400;2023-09-19T13:39:16;109.65;;;55.75;;
46753;SDS011;32500;50.620;3.400;2023-09-19T13:41:46;113.95;;;55.95;;
46753;SDS011;32500;50.620;3.400;2023-09-19T13:44:33;110.43;;;56.10;;
46753;SDS011;32500;50.620;3.400;2023-09-19T13:47:20;110.95;;;55.78;;
46753;SDS011;32500;50.620;3.400;2023-09-19T13:49:57;109.85;;;56.08;;
46753;SDS011;32500;50.620;3.400;2023-09-19T13:52:22;109.15;;;55.90;;
46753;SDS011;32500;50.620;3.400;2023-09-19T13:55:06;110.05;;;56.05;;
46753;SDS011;32500;50.620;3.400;2023-09-19T13:57:41;109.65;;;56.05;;
46753;SDS011;32500;50.620;3.400;2023-09-19T14:00:14;109.25;;;56.03;;
46753;SDS011;32500;50.620;3.400;2023-09-19T14:02:48;109.22;;;55.85;;
46753;SDS011;32500;50.620;3.400;2023-09-19T14:05:26;108.68;;;55.75;;
46753;SDS011;32500;50.620;3.400;2023-09-19T14:11:05;109.00;;;55.78;;
46753;SDS011;32500;50.620;3.400;2023-09-19T14:13:34;109.22;;;55.88;;
46753;SDS011;32500;50.620;3.400;2023-09-19T14:19:34;109.05;;;55.65;;
46753;SDS011;32500;50.620;3.400;2023-09-19T14:22:02;108.22;;;55.40;;
46753;SDS011;32500;50.620;3.400;2023-09-19T14:30:47;108.22;;;55.72;;
46753;SDS011;32500;50.620;3.400;2023-09-19T14:33:14;109.57;;;55.60;;
46753;SDS011;32500;50.620;3.400;2023-09-19T14:38:55;109.85;;;55.40;;
46753;SDS011;32500;50.620;3.400;2023-09-19T14:41:44;108.18;;;55.58;;
46753;SDS011;32500;50.620;3.400;2023-09-19T14:47:59;109.00;;;55.67;;
46753;SDS011;32500;50.620;3.400;2023-09-19T14:50:48;108.22;;;55.50;;
46753;SDS011;32500;50.620;3.400;2023-09-19T14:53:15;110.60;;;55.67;;
46753;SDS011;32500;50.620;3.400;2023-09-19T14:59:11;108.03;;;55.63;;
46753;SDS011;32500;50.620;3.400;2023-09-19T15:04:46;108.65;;;55.67;;
46753;SDS011;32500;50.620;3.400;2023-09-19T15:07:40;106.75;;;55.03;;
46753;SDS011;32500;50.620;3.400;2023-09-19T15:10:16;106.95;;;55.33;;
46753;SDS011;32500;50.620;3.400;2023-09-19T15:12:56;107.90;;;55.55;;
46753;SDS011;32500;50.620;3.400;2023-09-19T15:19:17;108.78;;;55.00;;
46753;SDS011;32500;50.620;3.400;2023-09-19T15:22:16;108.70;;;55.40;;
46753;SDS011;32500;50.620;3.400;2023-09-19T15:27:41;109.68;;;55.58;;
46753;SDS011;32500;50.620;3.400;2023-09-19T15:30:29;109.75;;;56.10;;
46753;SDS011;32500;50.620;3.400;2023-09-19T15:33:47;110.00;;;55.87;;
46753;SDS011;32500;50.620;3.400;2023-09-19T15:36:31;108.80;;;55.42;;
46753;SDS011;32500;50.620;3.400;2023-09-19T15:59:47;108.55;;;55.42;;
46753;SDS011;32500;50.620;3.400;2023-09-19T16:06:31;108.43;;;55.42;;
46753;SDS011;32500;50.620;3.400;2023-09-19T16:21:18;111.65;;;55.25;;
46753;SDS011;32500;50.620;3.400;2023-09-19T16:56:20;108.85;;;55.92;;
46753;SDS011;32500;50.620;3.400;2023-09-19T17:54:13;112.43;;;55.80;;
46753;SDS011;32500;50.620;3.400;2023-09-19T17:57:17;106.70;;;55.33;;
46753;SDS011;32500;50.620;3.400;2023-09-19T18:00:23;108.50;;;55.55;;
46753;SDS011;32500;50.620;3.400;2023-09-19T18:03:50;109.13;;;55.45;;
46753;SDS011;32500;50.620;3.400;2023-09-19T18:06:44;109.53;;;55.13;;
46753;SDS011;32500;50.620;3.400;2023-09-19T18:09:22;109.00;;;55.42;;
46753;SDS011;32500;50.620;3.400;2023-09-19T18:11:50;109.70;;;55.70;;
46753;SDS011;32500;50.620;3.400;2023-09-19T18:24:20;116.68;;;55.53;;
46753;SDS011;32500;50.620;3.400;2023-09-19T18:26:45;109.10;;;55.15;;
46753;SDS011;32500;50.620;3.400;2023-09-19T18:34:15;108.70;;;55.53;;
46753;SDS011;32500;50.620;3.400;2023-09-19T18:36:41;107.53;;;55.17;;
46753;SDS011;32500;50.620;3.400;2023-09-19T18:39:06;108.85;;;55.80;;
46753;SDS011;32500;50.620;3.400;2023-09-19T18:41:33;111.05;;;55.65;;
46753;SDS011;32500;50.620;3.400;2023-09-19T18:44:01;108.22;;;55.22;;
46753;SDS011;32500;50.620;3.400;2023-09-19T18:46:27;111.13;;;55.58;;
46753;SDS011;32500;50.620;3.400;2023-09-19T18:48:55;108.50;;;56.05;;
46753;SDS011;32500;50.620;3.400;2023-09-19T18:51:20;110.18;;;54.90;;
46753;SDS011;32500;50.620;3.400;2023-09-19T18:53:49;109.97;;;55.38;;
46753;SDS011;32500;50.620;3.400;2023-09-19T18:56:15;109.25;;;55.67;;
46753;SDS011;32500;50.620;3.400;2023-09-19T18:58:43;108.00;;;55.20;;
46753;SDS011;32500;50.620;3.400;2023-09-19T19:01:09;108.82;;;55.55;;
46753;SDS011;32500;50.620;3.400;2023-09-19T19:03:36;107.70;;;55.35;;
46753;SDS011;32500;50.620;3.400;2023-09-19T19:06:07;110.63;;;55.53;;
46753;SDS011;32500;50.620;3.400;2023-09-19T19:08:35;110.05;;;55.33;;
46753;SDS011;32500;50.620;3.400;2023-09-19T19:11:14;109.05;;;56.15;;
46753;SDS011;32500;50.620;3.400;2023-09-19T19:14:14;109.45;;;55.17;;
46753;SDS011;32500;50.620;3.400;2023-09-19T19:17:12;108.72;;;55.40;;
46753;SDS011;32500;50.620;3.400;2023-09-19T19:45:43;106.15;;;55.08;;
46753;SDS011;32500;50.620;3.400;2023-09-19T20:16:45;107.68;;;55.30;;
46753;SDS011;32500;50.620;3.400;2023-09-19T20:19:11;106.95;;;55.40;;
46753;SDS011;32500;50.620;3.400;2023-09-19T20:24:41;107.70;;;55.45;;
46753;SDS011;32500;50.620;3.400;2023-09-19T20:33:43;105.35;;;55.03;;
46753;SDS011;32500;50.620;3.400;2023-09-19T20:36:40;106.70;;;55.15;;
46753;SDS011;32500;50.620;3.400;2023-09-19T20:39:06;105.25;;;55.00;;
46753;SDS011;32500;50.620;3.400;2023-09-19T20:58:14;110.13;;;55.67;;
46753;SDS011;32500;50.620;3.400;2023-09-19T21:04:44;107.03;;;55.22;;
46753;SDS011;32500;50.620;3.400;2023-09-19T21:20:36;107.20;;;55.20;;
46753;SDS011;32500;50.620;3.400;2023-09-19T21:46:36;106.13;;;54.95;;
46753;SDS011;32500;50.620;3.400;2023-09-19T21:49:41;105.88;;;55.35;;
46753;SDS011;32500;50.620;3.400;2023-09-19T21:56:13;106.85;;;55.17;;
46753;SDS011;32500;50.620;3.400;2023-09-19T21:59:13;110.43;;;54.58;;
46753;SDS011;32500;50.620;3.400;2023-09-19T22:01:43;106.10;;;55.25;;
46753;SDS011;32500;50.620;3.400;2023-09-19T22:10:27;105.55;;;54.85;;
46753;SDS011;32500;50.620;3.400;2023-09-19T22:13:46;106.68;;;54.78;;
46753;SDS011;32500;50.620;3.400;2023-09-19T22:19:13;106.85;;;55.13;;
46753;SDS011;32500;50.620;3.400;2023-09-19T22:25:12;108.47;;;54.92;;
46753;SDS011;32500;50.620;3.400;2023-09-19T22:28:06;107.07;;;54.97;;
46753;SDS011;32500;50.620;3.400;2023-09-19T22:40:57;108.72;;;55.13;;
46753;SDS011;32500;50.620;3.400;2023-09-19T22:47:03;106.25;;;54.90;;
46753;SDS011;32500;50.620;3.400;2023-09-19T22:52:43;105.10;;;54.63;;
46753;SDS011;32500;50.620;3.400;2023-09-19T23:06:05;105.20;;;54.60;;
46753;SDS011;32500;50.620;3.400;2023-09-19T23:08:34;107.28;;;55.55;;
46753;SDS011;32500;50.620;3.400;2023-09-19T23:21:12;105.53;;;54.83;;
46753;SDS011;32500;50.620;3.400;2023-09-19T23:30:15;106.93;;;55.10;;
46753;SDS011;32500;50.620;3.400;2023-09-19T23:36:13;104.43;;;54.80;;
46753;SDS011;32500;50.620;3.400;2023-09-19T23:50:40;105.93;;;54.83;;
46753;SDS011;32500;50.620;3.400;2023-09-19T23:53:14;106.07;;;54.88;;
46753;SDS011;32500;50.620;3.400;2023-09-19T23:55:40;107.05;;;55.17;;
